Time;durP1;ratioP1;P1;durP2;ratioP2;P2;SDS_P1;SDS_P2;PMS_P1;PMS_P2;Temp;Humidity;BMP_temperature;BMP_pressure;BME280_temperature;BME280_humidity;BME280_pressure;Samples;Min_cycle;Max_cycle;Signal;HPM_P1;HPM_P2
2022/03/26 00:00:44;;;;;;;38.33;27.60;;;9.80;57.60;;;;;;5013677;28;20454;-69
2022/03/26 00:03:09;;;;;;;32.80;25.60;;;9.80;57.40;;;;;;5009446;28;20178;-70
2022/03/26 00:05:35;;;;;;;34.50;24.50;;;9.80;57.00;;;;;;5008035;28;20187;-69
2022/03/26 00:08:00;;;;;;;37.73;30.43;;;9.80;56.80;;;;;;5000224;28;20190;-69
2022/03/26 00:10:26;;;;;;;37.80;26.83;;;9.80;56.40;;;;;;5006125;28;20623;-69
2022/03/26 00:12:52;;;;;;;37.17;27.10;;;9.80;56.40;;;;;;5011429;28;20187;-69
2022/03/26 00:15:19;;;;;;;36.20;27.03;;;9.70;57.50;;;;;;5001097;28;20176;-69
2022/03/26 00:17:44;;;;;;;39.00;28.10;;;9.60;59.80;;;;;;5008006;28;20791;-69
2022/03/26 00:20:10;;;;;;;37.70;28.30;;;9.40;61.40;;;;;;5011772;28;20553;-70
2022/03/26 00:22:36;;;;;;;43.57;28.67;;;9.20;63.60;;;;;;5008340;28;20202;-68
2022/03/26 00:25:02;;;;;;;45.87;28.37;;;8.90;66.20;;;;;;5010046;28;20818;-70
2022/03/26 00:27:28;;;;;;;41.93;26.53;;;8.90;67.30;;;;;;5016250;28;20640;-68
2022/03/26 00:29:54;;;;;;;35.93;26.47;;;8.80;67.70;;;;;;5012689;28;20481;-70
2022/03/26 00:32:19;;;;;;;40.83;30.13;;;8.70;65.90;;;;;;5011096;28;20562;-70
2022/03/26 00:34:45;;;;;;;41.73;29.20;;;8.80;67.10;;;;;;5008617;28;20552;-69
2022/03/26 00:37:11;;;;;;;46.47;29.13;;;8.70;67.00;;;;;;5011329;28;20198;-69
2022/03/26 00:39:39;;;;;;;35.90;25.70;;;8.70;66.30;;;;;;5009590;28;20208;-69
2022/03/26 00:42:07;;;;;;;41.13;27.93;;;8.70;66.30;;;;;;5014010;28;20434;-68
2022/03/26 00:44:32;;;;;;;39.67;27.97;;;8.80;66.80;;;;;;5017325;28;20436;-68
2022/03/26 00:46:58;;;;;;;40.57;28.90;;;8.90;67.00;;;;;;5017634;28;20501;-70
2022/03/26 00:49:23;;;;;;;38.90;25.73;;;8.90;66.90;;;;;;5014186;28;20276;-69
2022/03/26 00:51:49;;;;;;;38.47;27.20;;;9.00;66.30;;;;;;5014561;28;20183;-69
2022/03/26 00:54:15;;;;;;;35.93;25.47;;;9.00;65.50;;;;;;5013240;28;20171;-69
2022/03/26 00:56:41;;;;;;;40.63;27.17;;;9.00;66.30;;;;;;5009775;28;20180;-70
2022/03/26 00:59:07;;;;;;;38.77;27.90;;;8.90;68.70;;;;;;5001528;28;20195;-69
2022/03/26 01:01:34;;;;;;;37.40;27.30;;;8.80;71.20;;;;;;5010717;28;20461;-70
2022/03/26 01:04:00;;;;;;;35.90;26.40;;;8.60;73.20;;;;;;5008440;28;20433;-70
2022/03/26 01:06:27;;;;;;;40.93;27.23;;;8.50;74.50;;;;;;4991768;28;20470;-71
2022/03/26 01:08:53;;;;;;;39.60;29.63;;;8.40;76.50;;;;;;5002394;28;20447;-70
2022/03/26 01:11:19;;;;;;;39.70;27.03;;;8.50;76.70;;;;;;5011071;28;20448;-70
2022/03/26 01:13:45;;;;;;;33.33;24.53;;;8.40;76.60;;;;;;5007332;28;20942;-69
2022/03/26 01:16:12;;;;;;;45.33;27.97;;;8.40;77.50;;;;;;5005456;28;20190;-70
2022/03/26 01:18:38;;;;;;;40.53;26.97;;;8.40;76.10;;;;;;5012041;28;20488;-69
2022/03/26 01:21:04;;;;;;;35.17;25.80;;;8.20;77.00;;;;;;5004076;28;20451;-70
2022/03/26 01:23:30;;;;;;;41.80;27.27;;;8.10;77.30;;;;;;5003868;28;20956;-69
2022/03/26 01:25:55;;;;;;;38.30;27.00;;;8.10;77.50;;;;;;4998472;28;20442;-69
2022/03/26 01:28:21;;;;;;;44.97;28.47;;;8.10;77.40;;;;;;4997824;28;20181;-69
2022/03/26 01:30:47;;;;;;;43.20;28.77;;;8.10;79.20;;;;;;4990220;28;20638;-69
2022/03/26 01:33:12;;;;;;;43.27;29.40;;;8.20;79.00;;;;;;5003648;28;20636;-69
2022/03/26 01:35:38;;;;;;;41.07;28.37;;;8.10;78.10;;;;;;5004385;28;20188;-69
2022/03/26 01:38:06;;;;;;;38.40;27.40;;;8.10;78.60;;;;;;5002817;28;20194;-69
2022/03/26 01:40:32;;;;;;;37.00;25.40;;;8.10;81.00;;;;;;5004713;28;20198;-69
2022/03/26 01:42:59;;;;;;;35.77;25.63;;;8.00;80.20;;;;;;5011827;28;20448;-69
2022/03/26 01:45:25;;;;;;;36.10;27.47;;;7.90;80.50;;;;;;5006784;28;20441;-69
2022/03/26 01:47:51;;;;;;;39.40;26.73;;;8.00;80.20;;;;;;5009997;28;20457;-69
2022/03/26 01:50:16;;;;;;;41.07;26.70;;;8.00;80.60;;;;;;5008414;28;20461;-69
2022/03/26 01:52:42;;;;;;;38.00;27.10;;;8.00;83.90;;;;;;5003651;28;20189;-69
2022/03/26 01:55:08;;;;;;;36.17;25.50;;;8.00;82.00;;;;;;5000451;28;20189;-69
2022/03/26 01:57:33;;;;;;;36.97;25.97;;;8.10;82.30;;;;;;5001964;28;20183;-69
2022/03/26 02:00:01;;;;;;;35.13;27.23;;;7.90;82.80;;;;;;5004076;28;20477;-69
2022/03/26 02:02:26;;;;;;;41.13;27.97;;;7.70;84.90;;;;;;5009525;28;20190;-69
2022/03/26 02:04:52;;;;;;;42.13;26.40;;;7.60;85.20;;;;;;4999174;28;20443;-69
2022/03/26 02:07:18;;;;;;;34.30;25.20;;;7.60;85.90;;;;;;5008575;28;20215;-69
2022/03/26 02:09:44;;;;;;;40.83;25.83;;;7.70;86.20;;;;;;5007881;28;20202;-69
2022/03/26 02:12:23;;;;;;;36.70;26.30;;;7.70;87.00;;;;;;5006449;28;20178;-69
2022/03/26 02:14:49;;;;;;;39.87;27.00;;;7.80;86.50;;;;;;5001491;28;20446;-69
2022/03/26 02:17:16;;;;;;;39.10;26.07;;;7.80;88.90;;;;;;5004018;28;20449;-69
2022/03/26 02:19:52;;;;;;;37.10;26.50;;;7.80;90.00;;;;;;5006088;28;20206;-69
2022/03/26 02:22:20;;;;;;;37.93;26.00;;;7.80;90.80;;;;;;5008205;28;20806;-69
2022/03/26 02:24:46;;;;;;;37.77;26.27;;;7.80;90.90;;;;;;5005763;28;20445;-69
2022/03/26 02:27:11;;;;;;;34.10;25.03;;;7.80;90.70;;;;;;5005321;28;20472;-68
2022/03/26 02:29:37;;;;;;;38.53;26.87;;;7.70;92.00;;;;;;5001371;28;20215;-69
2022/03/26 02:32:02;;;;;;;34.60;24.80;;;7.60;91.50;;;;;;5005088;28;20185;-69
2022/03/26 02:34:28;;;;;;;44.07;28.17;;;7.50;92.10;;;;;;5011124;28;20183;-69
2022/03/26 02:36:58;;;;;;;40.90;26.40;;;7.40;92.20;;;;;;5003502;28;20293;-69
2022/03/26 02:39:24;;;;;;;42.27;26.37;;;7.40;92.70;;;;;;5002978;28;20207;-69
2022/03/26 02:41:49;;;;;;;35.70;25.30;;;7.40;92.40;;;;;;5007593;28;20802;-69
2022/03/26 02:44:15;;;;;;;37.20;25.40;;;7.50;92.70;;;;;;5010626;28;20537;-69
2022/03/26 02:46:43;;;;;;;34.43;24.47;;;7.40;92.70;;;;;;5007569;28;20210;-69
2022/03/26 02:49:08;;;;;;;32.50;24.70;;;7.30;92.90;;;;;;5004933;28;20999;-69
2022/03/26 02:51:34;;;;;;;41.23;25.37;;;7.30;92.90;;;;;;5001189;28;20497;-69
2022/03/26 02:53:59;;;;;;;36.23;24.30;;;7.20;93.00;;;;;;5005023;28;20182;-69
2022/03/26 02:56:25;;;;;;;33.10;24.00;;;7.30;93.50;;;;;;5004779;28;20221;-69
2022/03/26 02:58:50;;;;;;;34.70;24.60;;;7.30;93.40;;;;;;5009021;28;20178;-68
2022/03/26 03:01:16;;;;;;;34.20;24.93;;;7.30;93.90;;;;;;5008988;28;20190;-68
2022/03/26 03:03:41;;;;;;;35.83;25.63;;;7.30;93.60;;;;;;5005935;28;20186;-69
2022/03/26 03:06:07;;;;;;;38.30;25.03;;;7.30;94.20;;;;;;5004044;28;20542;-69
2022/03/26 03:08:33;;;;;;;43.03;27.53;;;7.40;94.50;;;;;;5002294;28;20178;-69
2022/03/26 03:10:59;;;;;;;36.43;26.07;;;7.30;94.20;;;;;;5002343;28;20261;-69
2022/03/26 03:13:25;;;;;;;42.70;27.50;;;7.30;95.70;;;;;;5003488;28;20534;-69
2022/03/26 03:15:50;;;;;;;35.23;26.03;;;7.20;95.20;;;;;;4991593;28;20190;-69
2022/03/26 03:18:17;;;;;;;39.10;24.60;;;7.10;95.10;;;;;;5012454;28;20170;-69
2022/03/26 03:20:43;;;;;;;36.63;24.90;;;7.10;95.70;;;;;;5005383;28;20198;-69
2022/03/26 03:23:09;;;;;;;38.83;26.63;;;7.00;95.90;;;;;;5012706;28;20803;-69
2022/03/26 03:25:34;;;;;;;32.93;23.10;;;6.90;96.50;;;;;;5012059;28;20437;-69
2022/03/26 03:28:00;;;;;;;40.20;26.13;;;7.00;96.40;;;;;;5009146;28;20186;-69
2022/03/26 03:30:26;;;;;;;36.93;24.73;;;7.10;95.90;;;;;;5011662;28;20202;-69
2022/03/26 03:32:53;;;;;;;38.07;24.73;;;7.20;95.30;;;;;;5003497;28;20210;-69
2022/03/26 03:35:19;;;;;;;43.20;27.30;;;7.20;95.40;;;;;;5010751;28;20473;-68
2022/03/26 03:37:45;;;;;;;36.03;23.10;;;7.20;95.50;;;;;;5007780;28;20516;-69
2022/03/26 03:40:11;;;;;;;35.07;25.20;;;7.20;95.70;;;;;;5006868;28;20332;-68
2022/03/26 03:42:37;;;;;;;33.83;24.07;;;7.10;96.50;;;;;;5012446;28;20249;-68
2022/03/26 03:45:05;;;;;;;34.47;24.60;;;7.10;97.60;;;;;;5011528;28;20953;-69
2022/03/26 03:47:31;;;;;;;34.33;23.50;;;7.10;97.90;;;;;;5012395;28;20683;-68
2022/03/26 03:49:57;;;;;;;33.87;24.67;;;6.90;97.70;;;;;;5014497;28;20485;-69
2022/03/26 03:52:22;;;;;;;32.50;24.33;;;6.80;97.60;;;;;;5007903;28;20524;-67
2022/03/26 03:54:48;;;;;;;36.10;24.27;;;6.70;98.00;;;;;;5009945;28;20182;-67
2022/03/26 03:57:13;;;;;;;33.47;22.60;;;6.60;98.30;;;;;;5011020;28;20191;-68
2022/03/26 03:59:42;;;;;;;31.50;23.10;;;6.60;98.60;;;;;;5011025;28;20214;-68
2022/03/26 04:02:11;;;;;;;35.70;23.67;;;6.60;99.20;;;;;;5012728;28;20270;-68
2022/03/26 04:04:41;;;;;;;32.73;23.10;;;6.50;99.10;;;;;;5006827;28;20438;-68
2022/03/26 04:07:07;;;;;;;38.10;23.00;;;6.60;98.70;;;;;;5005522;28;20469;-68
2022/03/26 04:09:33;;;;;;;37.90;24.77;;;6.70;99.60;;;;;;5005088;28;20540;-68
2022/03/26 04:11:59;;;;;;;35.93;24.30;;;6.80;99.90;;;;;;4998854;28;20475;-68
2022/03/26 04:14:25;;;;;;;31.93;23.23;;;6.70;99.90;;;;;;5008467;28;20975;-68
2022/03/26 04:16:50;;;;;;;34.93;24.77;;;6.70;99.90;;;;;;5006090;28;20599;-67
2022/03/26 04:19:18;;;;;;;36.40;21.73;;;6.70;99.90;;;;;;5006417;28;20278;-68
2022/03/26 04:21:44;;;;;;;37.13;25.80;;;6.60;99.90;;;;;;5012323;28;20178;-67
2022/03/26 04:24:09;;;;;;;34.47;25.20;;;6.50;99.90;;;;;;5005686;28;20460;-68
2022/03/26 04:26:35;;;;;;;34.00;23.67;;;6.50;99.90;;;;;;5011137;28;20469;-68
2022/03/26 04:29:01;;;;;;;37.20;24.47;;;6.30;99.90;;;;;;5002636;28;20187;-68
2022/03/26 04:31:27;;;;;;;36.57;23.23;;;6.20;99.90;;;;;;5011069;28;20188;-68
2022/03/26 04:33:53;;;;;;;33.30;23.93;;;6.20;99.90;;;;;;5011460;28;20437;-68
2022/03/26 04:36:20;;;;;;;32.83;24.27;;;6.30;99.90;;;;;;5012512;28;20952;-68
2022/03/26 04:38:46;;;;;;;32.30;23.53;;;6.30;99.90;;;;;;5001535;28;20198;-68
2022/03/26 04:41:12;;;;;;;35.37;25.27;;;6.20;99.90;;;;;;5010109;28;20433;-68
2022/03/26 04:43:37;;;;;;;40.07;24.13;;;6.20;99.90;;;;;;5009037;28;20190;-68
2022/03/26 04:46:03;;;;;;;33.57;24.13;;;6.00;99.90;;;;;;5011030;28;20207;-69
2022/03/26 04:48:29;;;;;;;37.10;24.90;;;5.80;99.90;;;;;;5008759;28;20966;-68
2022/03/26 04:50:54;;;;;;;34.00;23.70;;;5.70;99.90;;;;;;5008151;28;20601;-68
2022/03/26 04:53:20;;;;;;;35.77;25.00;;;5.80;99.90;;;;;;5004312;28;20183;-68
2022/03/26 04:55:45;;;;;;;40.33;23.57;;;5.80;99.90;;;;;;5003901;28;20693;-68
2022/03/26 04:58:11;;;;;;;38.80;25.20;;;5.90;99.90;;;;;;5011028;28;20261;-69
2022/03/26 05:00:36;;;;;;;33.83;22.00;;;5.80;99.90;;;;;;5007672;28;20233;-68
2022/03/26 05:03:02;;;;;;;32.73;23.03;;;5.80;99.90;;;;;;4997989;28;20171;-68
2022/03/26 05:05:27;;;;;;;38.07;26.10;;;5.90;99.90;;;;;;4999348;28;20183;-68
2022/03/26 05:07:55;;;;;;;39.10;24.43;;;6.10;99.90;;;;;;5007731;28;20341;-68
2022/03/26 05:10:29;;;;;;;35.60;25.27;;;6.00;99.90;;;;;;5011493;28;20201;-68
2022/03/26 05:12:56;;;;;;;38.23;23.23;;;5.90;99.90;;;;;;5006602;28;20461;-68
2022/03/26 05:15:23;;;;;;;33.53;24.33;;;5.80;99.90;;;;;;5010518;28;20575;-69
2022/03/26 05:17:50;;;;;;;39.40;25.53;;;5.70;99.90;;;;;;5008705;28;20442;-69
2022/03/26 05:20:16;;;;;;;51.70;34.23;;;5.40;99.90;;;;;;5006652;28;20469;-68
2022/03/26 05:22:47;;;;;;;40.50;28.10;;;5.30;99.90;;;;;;5009954;28;20593;-68
2022/03/26 05:25:13;;;;;;;35.50;24.40;;;5.30;99.90;;;;;;5009606;28;20468;-68
2022/03/26 05:27:43;;;;;;;38.57;25.83;;;5.30;99.90;;;;;;5009437;28;20957;-68
2022/03/26 05:30:09;;;;;;;38.50;26.33;;;5.40;99.90;;;;;;5006926;28;20829;-68
2022/03/26 05:32:35;;;;;;;33.43;23.20;;;5.40;99.90;;;;;;5007071;28;20989;-69
2022/03/26 05:35:00;;;;;;;42.43;26.20;;;5.30;99.90;;;;;;5002519;28;20580;-68
2022/03/26 05:37:26;;;;;;;34.73;23.00;;;5.30;99.90;;;;;;5007984;28;20202;-68
2022/03/26 05:39:52;;;;;;;34.97;24.83;;;5.40;99.90;;;;;;4997721;28;20591;-69
2022/03/26 05:42:18;;;;;;;36.87;25.07;;;5.60;99.90;;;;;;5001530;28;20191;-68
2022/03/26 05:44:43;;;;;;;36.00;22.30;;;5.80;99.90;;;;;;5006147;28;20646;-68
2022/03/26 05:47:09;;;;;;;35.07;24.17;;;5.80;99.90;;;;;;4993394;28;20523;-69
2022/03/26 05:49:35;;;;;;;36.20;24.57;;;6.00;99.90;;;;;;5014141;28;20663;-68
2022/03/26 05:52:00;;;;;;;44.23;26.73;;;6.10;99.90;;;;;;5011725;28;20722;-68
2022/03/26 05:54:26;;;;;;;36.67;25.70;;;6.20;99.90;;;;;;5001690;28;20193;-68
2022/03/26 05:56:51;;;;;;;32.90;24.00;;;6.30;99.90;;;;;;5005132;28;20211;-68
2022/03/26 05:59:20;;;;;;;43.60;26.03;;;6.40;99.90;;;;;;5000212;28;20287;-68
2022/03/26 06:01:46;;;;;;;36.50;24.30;;;6.50;99.90;;;;;;5004289;28;20179;-68
2022/03/26 06:04:11;;;;;;;38.10;25.77;;;6.50;99.90;;;;;;5005298;28;21161;-68
2022/03/26 06:06:37;;;;;;;39.63;24.43;;;6.60;99.90;;;;;;5002445;28;20290;-68
2022/03/26 06:09:02;;;;;;;39.47;26.23;;;6.80;99.90;;;;;;5001462;28;20261;-68
2022/03/26 06:11:28;;;;;;;36.40;25.27;;;6.90;99.90;;;;;;5010758;28;20650;-68
2022/03/26 06:13:54;;;;;;;40.30;28.13;;;6.90;99.90;;;;;;5008399;28;20650;-68
2022/03/26 06:16:19;;;;;;;38.37;24.33;;;7.10;99.90;;;;;;5003584;28;20298;-69
2022/03/26 06:18:45;;;;;;;35.63;24.77;;;7.40;99.90;;;;;;5006968;28;20187;-68
2022/03/26 06:21:10;;;;;;;37.10;25.83;;;7.60;99.90;;;;;;5002907;28;20185;-68
2022/03/26 06:23:36;;;;;;;33.03;24.53;;;7.70;99.90;;;;;;5009580;28;20240;-68
2022/03/26 06:26:02;;;;;;;37.07;24.57;;;7.80;99.90;;;;;;5005131;28;20589;-69
2022/03/26 06:28:27;;;;;;;34.07;25.83;;;8.00;99.90;;;;;;5007266;28;20171;-68
2022/03/26 06:30:53;;;;;;;33.77;24.47;;;8.10;99.90;;;;;;5005749;28;20553;-68
2022/03/26 06:33:19;;;;;;;35.07;24.87;;;8.40;99.90;;;;;;5005977;28;20187;-68
2022/03/26 06:35:45;;;;;;;33.70;25.53;;;8.50;99.90;;;;;;5007116;28;20187;-67
2022/03/26 06:38:11;;;;;;;35.67;25.43;;;8.60;99.90;;;;;;5008696;28;20191;-68
2022/03/26 06:40:38;;;;;;;33.40;25.77;;;8.70;99.90;;;;;;5009415;28;20470;-68
2022/03/26 06:43:06;;;;;;;38.50;26.20;;;8.70;99.50;;;;;;5005881;28;20451;-68
2022/03/26 06:45:31;;;;;;;33.03;25.33;;;8.90;97.80;;;;;;5004321;28;21697;-68
2022/03/26 06:47:57;;;;;;;34.47;25.30;;;9.10;96.20;;;;;;4997733;28;20516;-68
2022/03/26 06:50:23;;;;;;;36.53;24.00;;;9.20;94.90;;;;;;5007356;28;20194;-68
2022/03/26 06:52:49;;;;;;;35.00;24.90;;;9.40;95.40;;;;;;5004885;28;20194;-69
2022/03/26 06:55:14;;;;;;;30.97;25.80;;;9.50;95.60;;;;;;5010340;28;20521;-68
2022/03/26 06:57:41;;;;;;;35.23;25.00;;;9.70;94.20;;;;;;5007373;28;20210;-68
2022/03/26 07:00:09;;;;;;;34.70;25.13;;;9.90;94.10;;;;;;5008431;28;20260;-68
2022/03/26 07:02:35;;;;;;;39.17;26.07;;;10.20;93.00;;;;;;5010690;28;20988;-68
2022/03/26 07:05:01;;;;;;;37.13;26.33;;;10.40;91.70;;;;;;5001952;28;20521;-68
2022/03/26 07:07:27;;;;;;;37.40;27.27;;;10.60;90.60;;;;;;5005926;28;20483;-69
2022/03/26 07:09:52;;;;;;;36.33;25.07;;;10.80;88.60;;;;;;5003764;28;20461;-68
2022/03/26 07:12:18;;;;;;;36.63;25.67;;;11.00;86.20;;;;;;5004282;28;20222;-68
2022/03/26 07:14:44;;;;;;;36.47;25.97;;;11.20;84.00;;;;;;5009082;28;20174;-68
2022/03/26 07:17:09;;;;;;;36.47;26.03;;;11.20;82.40;;;;;;5002459;28;20573;-68
2022/03/26 07:19:35;;;;;;;35.97;25.10;;;11.30;81.20;;;;;;5003630;28;20210;-69
2022/03/26 07:22:01;;;;;;;40.10;28.20;;;11.50;80.00;;;;;;5009431;28;20258;-68
2022/03/26 07:24:26;;;;;;;32.80;24.37;;;11.60;79.60;;;;;;5005441;28;20198;-68
2022/03/26 07:26:52;;;;;;;37.30;26.20;;;11.70;78.70;;;;;;5010964;28;20192;-68
2022/03/26 07:29:17;;;;;;;33.53;24.93;;;11.90;77.40;;;;;;5004775;28;20289;-68
2022/03/26 07:31:43;;;;;;;38.63;24.70;;;12.00;76.90;;;;;;4984422;28;20191;-68
2022/03/26 07:34:11;;;;;;;34.70;26.77;;;12.10;76.10;;;;;;5008133;28;20388;-68
2022/03/26 07:36:36;;;;;;;35.03;26.13;;;12.30;75.60;;;;;;5006693;28;20550;-68
2022/03/26 07:39:02;;;;;;;36.07;26.83;;;12.20;75.50;;;;;;5000270;28;20481;-68
2022/03/26 07:41:28;;;;;;;34.60;25.60;;;12.30;74.80;;;;;;5006191;28;20206;-67
2022/03/26 07:43:53;;;;;;;41.70;25.80;;;12.40;74.10;;;;;;5009061;28;20206;-69
2022/03/26 07:46:19;;;;;;;37.80;26.37;;;12.60;74.10;;;;;;4992061;28;20190;-68
2022/03/26 07:48:45;;;;;;;37.47;26.60;;;12.70;73.00;;;;;;4999259;28;20286;-68
2022/03/26 07:51:11;;;;;;;37.47;26.37;;;13.00;72.80;;;;;;5009999;28;20189;-68
2022/03/26 07:53:36;;;;;;;34.37;25.70;;;13.00;70.50;;;;;;5007188;28;20536;-68
2022/03/26 07:56:02;;;;;;;37.30;27.00;;;13.10;70.00;;;;;;5005155;28;20202;-68
2022/03/26 07:58:28;;;;;;;39.70;27.50;;;13.30;68.60;;;;;;5010394;28;20654;-68
2022/03/26 08:00:53;;;;;;;38.67;28.23;;;13.40;69.20;;;;;;5008135;28;20306;-68
2022/03/26 08:03:19;;;;;;;37.40;27.40;;;13.60;67.60;;;;;;5006734;28;20221;-68
2022/03/26 08:05:44;;;;;;;35.23;27.00;;;13.80;67.00;;;;;;5010511;28;20333;-68
2022/03/26 08:08:10;;;;;;;36.60;28.80;;;13.90;65.60;;;;;;5011175;28;20217;-68
2022/03/26 08:10:36;;;;;;;38.33;27.43;;;13.90;63.80;;;;;;5013741;28;20290;-68
2022/03/26 08:13:02;;;;;;;38.87;28.30;;;13.90;63.30;;;;;;5011624;28;20179;-68
2022/03/26 08:15:28;;;;;;;37.57;30.40;;;14.10;63.20;;;;;;5014146;28;20793;-69
2022/03/26 08:17:53;;;;;;;40.53;28.97;;;14.40;62.30;;;;;;5013114;28;20293;-70
2022/03/26 08:20:19;;;;;;;37.80;27.13;;;14.60;61.20;;;;;;5013080;28;20611;-63
2022/03/26 08:22:44;;;;;;;36.70;29.30;;;15.10;59.70;;;;;;5005341;28;20183;-63
2022/03/26 08:25:10;;;;;;;41.23;28.67;;;15.00;58.70;;;;;;5006296;28;20266;-63
2022/03/26 08:27:36;;;;;;;49.37;31.13;;;15.10;58.60;;;;;;5006326;28;20183;-63
2022/03/26 08:30:07;;;;;;;47.63;26.67;;;15.60;58.40;;;;;;5004030;28;20221;-63
2022/03/26 08:32:32;;;;;;;43.93;28.03;;;15.70;57.70;;;;;;5003353;28;20446;-65
2022/03/26 08:34:58;;;;;;;36.87;26.30;;;15.70;56.50;;;;;;5004049;28;20543;-68
2022/03/26 08:37:23;;;;;;;41.13;29.03;;;15.90;56.80;;;;;;4998800;28;20207;-65
2022/03/26 08:39:49;;;;;;;36.77;27.80;;;16.40;56.80;;;;;;5005952;28;20199;-65
2022/03/26 08:42:14;;;;;;;42.10;30.03;;;16.90;56.00;;;;;;5008845;28;20258;-65
2022/03/26 08:44:40;;;;;;;45.40;31.77;;;17.40;54.40;;;;;;5003759;28;20189;-65
2022/03/26 08:47:06;;;;;;;34.90;28.50;;;17.50;52.90;;;;;;5007737;28;20206;-65
2022/03/26 08:49:33;;;;;;;37.27;28.83;;;17.40;52.60;;;;;;5009486;28;20207;-65
2022/03/26 08:51:58;;;;;;;38.93;29.37;;;17.50;52.60;;;;;;4990095;28;20452;-65
2022/03/26 08:54:24;;;;;;;39.80;30.37;;;17.60;51.80;;;;;;5011691;28;20525;-65
2022/03/26 08:56:50;;;;;;;36.00;30.30;;;18.10;51.80;;;;;;5005415;28;20585;-65
2022/03/26 08:59:15;;;;;;;39.20;31.93;;;18.70;49.90;;;;;;5005716;28;20264;-65
2022/03/26 09:01:41;;;;;;;35.90;30.60;;;19.00;49.60;;;;;;4996350;28;20187;-65
2022/03/26 09:04:06;;;;;;;40.33;32.60;;;20.00;48.40;;;;;;5009718;28;20185;-65
2022/03/26 09:06:32;;;;;;;39.00;31.60;;;20.30;46.80;;;;;;5008229;28;20191;-65
2022/03/26 09:08:59;;;;;;;37.77;30.27;;;20.90;45.70;;;;;;5000645;28;20215;-65
2022/03/26 09:11:25;;;;;;;40.10;30.87;;;21.10;44.70;;;;;;5007557;28;20178;-65
2022/03/26 09:13:51;;;;;;;39.53;32.10;;;21.20;43.90;;;;;;5004709;28;20444;-65
2022/03/26 09:16:17;;;;;;;36.70;30.70;;;21.20;43.70;;;;;;5008063;28;20329;-65
2022/03/26 09:18:42;;;;;;;37.43;32.93;;;21.80;43.00;;;;;;5011731;28;20179;-66
2022/03/26 09:21:08;;;;;;;38.13;33.03;;;22.40;42.20;;;;;;5008378;28;20439;-66
2022/03/26 09:23:34;;;;;;;37.30;32.03;;;23.20;40.40;;;;;;5011244;28;20179;-65
2022/03/26 09:26:00;;;;;;;39.50;34.03;;;23.30;39.30;;;;;;5004461;28;20183;-66
2022/03/26 09:28:26;;;;;;;38.33;31.87;;;23.20;39.10;;;;;;5006202;28;20183;-68
2022/03/26 09:30:51;;;;;;;38.97;34.77;;;23.20;39.00;;;;;;5007192;28;20508;-69
2022/03/26 09:33:17;;;;;;;36.97;32.40;;;23.30;38.70;;;;;;5010371;28;20453;-66
2022/03/26 09:35:43;;;;;;;35.47;31.87;;;23.80;38.10;;;;;;5007161;28;20666;-66
2022/03/26 09:38:08;;;;;;;38.50;32.27;;;24.50;37.30;;;;;;4999781;28;20470;-71
2022/03/26 09:40:36;;;;;;;37.83;33.40;;;24.60;36.60;;;;;;5009022;28;20203;-66
2022/03/26 09:43:02;;;;;;;38.30;34.23;;;24.80;36.40;;;;;;5003107;28;20187;-66
2022/03/26 09:45:27;;;;;;;35.83;31.97;;;25.00;35.30;;;;;;4999310;28;20441;-67
2022/03/26 09:47:54;;;;;;;35.83;32.10;;;25.30;35.20;;;;;;5004210;28;20221;-66
2022/03/26 09:50:21;;;;;;;36.90;32.57;;;25.40;35.00;;;;;;5008227;28;20944;-68
2022/03/26 09:52:47;;;;;;;38.23;32.57;;;25.50;34.40;;;;;;5011409;28;20441;-68
2022/03/26 09:55:17;;;;;;;38.07;33.97;;;26.10;34.20;;;;;;5001947;28;20446;-68
2022/03/26 09:57:42;;;;;;;41.17;33.37;;;26.90;33.00;;;;;;5006763;28;20473;-68
2022/03/26 10:00:09;;;;;;;36.17;32.47;;;27.70;32.70;;;;;;5007751;28;20580;-68
2022/03/26 10:02:35;;;;;;;38.23;34.13;;;27.70;31.90;;;;;;5007899;28;20219;-68
2022/03/26 10:05:02;;;;;;;36.40;32.60;;;28.90;31.40;;;;;;4993727;28;20466;-68
2022/03/26 10:07:29;;;;;;;35.53;32.13;;;30.00;29.80;;;;;;5002954;28;20244;-68
2022/03/26 10:09:56;;;;;;;37.03;32.83;;;29.50;29.70;;;;;;5006813;28;20553;-68
2022/03/26 10:12:24;;;;;;;38.93;35.00;;;29.90;29.00;;;;;;5008595;28;20450;-68
2022/03/26 10:14:54;;;;;;;37.93;34.33;;;30.00;29.00;;;;;;5003027;28;20488;-68
2022/03/26 10:17:25;;;;;;;38.40;34.33;;;30.10;28.60;;;;;;5009170;28;20480;-68
2022/03/26 10:19:55;;;;;;;39.93;35.60;;;30.10;28.70;;;;;;4982622;28;20831;-68
2022/03/26 10:22:32;;;;;;;36.93;33.43;;;30.00;28.30;;;;;;5005650;28;20438;-68
2022/03/26 10:25:10;;;;;;;37.30;33.50;;;29.80;28.80;;;;;;5007999;28;20441;-68
2022/03/26 10:27:38;;;;;;;38.37;34.57;;;29.50;28.60;;;;;;5004888;28;20484;-68
2022/03/26 10:30:05;;;;;;;37.37;33.57;;;30.60;28.00;;;;;;5007246;28;20468;-68
2022/03/26 10:32:49;;;;;;;38.03;33.77;;;31.70;27.70;;;;;;5007284;28;20709;-68
2022/03/26 10:35:27;;;;;;;36.90;33.30;;;32.30;26.90;;;;;;5007604;28;20529;-68
2022/03/26 10:37:58;;;;;;;38.30;34.43;;;31.40;26.90;;;;;;5010658;28;20455;-68
2022/03/26 10:40:51;;;;;;;36.50;32.57;;;31.10;27.20;;;;;;5011428;28;20457;-68
2022/03/26 10:43:16;;;;;;;37.03;33.40;;;31.00;27.20;;;;;;4994041;28;20471;-67
2022/03/26 10:45:48;;;;;;;39.70;35.23;;;30.80;27.10;;;;;;4994804;28;20470;-70
2022/03/26 10:48:13;;;;;;;37.27;33.57;;;30.90;27.30;;;;;;5009157;28;20261;-67
2022/03/26 10:50:40;;;;;;;39.50;35.33;;;31.50;26.60;;;;;;4993639;28;21000;-67
2022/03/26 10:53:11;;;;;;;39.23;35.23;;;31.50;26.90;;;;;;5010317;28;20222;-67
2022/03/26 10:55:39;;;;;;;40.17;36.20;;;32.60;26.40;;;;;;5007244;28;20492;-67
2022/03/26 10:58:05;;;;;;;38.47;34.30;;;31.40;26.30;;;;;;5011618;28;20446;-69
2022/03/26 11:00:31;;;;;;;35.57;32.03;;;31.90;26.40;;;;;;5007109;28;20469;-67
2022/03/26 11:02:57;;;;;;;36.97;33.03;;;32.00;26.10;;;;;;5007470;28;20448;-68
2022/03/26 11:05:23;;;;;;;37.93;34.37;;;32.30;26.10;;;;;;5006044;28;20191;-67
2022/03/26 11:07:51;;;;;;;36.23;32.87;;;32.70;25.50;;;;;;5006331;28;20647;-67
2022/03/26 11:10:16;;;;;;;38.07;34.33;;;33.60;25.80;;;;;;4999542;28;20829;-67
2022/03/26 11:12:45;;;;;;;33.23;30.00;;;33.80;25.10;;;;;;4996737;28;20438;-67
2022/03/26 11:15:21;;;;;;;35.70;32.30;;;34.60;24.30;;;;;;5002749;28;20201;-67
2022/03/26 11:18:05;;;;;;;35.97;32.50;;;34.50;24.30;;;;;;5013132;28;20432;-68
2022/03/26 11:20:40;;;;;;;35.57;32.10;;;33.70;24.00;;;;;;5003861;28;20515;-67
2022/03/26 11:23:27;;;;;;;36.10;32.67;;;31.60;25.00;;;;;;5003158;28;20439;-67
2022/03/26 11:26:19;;;;;;;34.93;31.27;;;30.70;25.20;;;;;;4996717;28;20462;-67
2022/03/26 11:29:22;;;;;;;36.47;32.60;;;31.20;25.20;;;;;;4986860;28;20814;-67
2022/03/26 11:32:02;;;;;;;33.73;30.63;;;31.60;25.30;;;;;;4999037;28;21037;-68
2022/03/26 11:34:32;;;;;;;35.17;32.00;;;32.90;24.80;;;;;;5003518;28;20757;-67
2022/03/26 11:37:12;;;;;;;33.57;30.17;;;33.40;24.20;;;;;;5010897;28;20464;-67
2022/03/26 11:39:46;;;;;;;32.10;29.17;;;32.40;24.70;;;;;;4999925;28;20464;-67
2022/03/26 11:42:12;;;;;;;34.20;31.00;;;32.80;24.60;;;;;;5006325;28;20806;-67
2022/03/26 11:44:45;;;;;;;31.77;28.70;;;32.90;24.20;;;;;;5003383;28;20439;-67
2022/03/26 11:50:45;;;;;;;35.17;31.77;;;34.00;23.10;;;;;;5010785;28;20516;-68
2022/03/26 11:53:24;;;;;;;34.13;30.47;;;33.90;23.60;;;;;;5003153;28;20948;-67
2022/03/26 11:55:49;;;;;;;34.50;30.90;;;33.30;23.20;;;;;;5006008;28;20452;-67
2022/03/26 11:58:26;;;;;;;34.57;29.43;;;33.20;23.80;;;;;;5008992;28;20449;-67
2022/03/26 12:00:55;;;;;;;33.67;30.37;;;34.20;23.40;;;;;;5001744;28;20470;-67
2022/03/26 12:03:23;;;;;;;30.53;27.63;;;35.10;22.80;;;;;;5008597;28;20444;-68
2022/03/26 12:08:38;;;;;;;31.53;28.73;;;35.30;22.60;;;;;;5010022;28;20444;-67
2022/03/26 12:11:04;;;;;;;35.27;31.77;;;33.90;22.80;;;;;;5006203;28;20810;-67
2022/03/26 12:13:32;;;;;;;32.10;28.67;;;34.80;22.90;;;;;;5013295;28;20175;-68
2022/03/26 12:16:02;;;;;;;28.30;25.80;;;34.80;22.30;;;;;;5010637;28;20217;-68
2022/03/26 12:18:38;;;;;;;29.93;27.00;;;34.30;22.00;;;;;;5006812;28;20433;-68
2022/03/26 12:21:07;;;;;;;28.67;26.07;;;34.80;22.00;;;;;;5010999;28;20449;-68
2022/03/26 12:23:34;;;;;;;30.33;27.63;;;33.90;21.80;;;;;;5013913;28;20434;-67
2022/03/26 12:26:06;;;;;;;28.10;25.57;;;34.20;22.20;;;;;;5011538;28;20433;-67
2022/03/26 12:28:37;;;;;;;27.27;24.67;;;33.90;22.20;;;;;;5006143;28;20462;-68
2022/03/26 12:31:05;;;;;;;27.83;25.33;;;33.70;22.10;;;;;;5007815;28;20457;-68
2022/03/26 12:33:45;;;;;;;31.70;28.70;;;33.20;22.40;;;;;;5009156;28;20484;-68
2022/03/26 12:36:12;;;;;;;27.80;25.20;;;32.00;22.90;;;;;;5004611;28;20426;-68
2022/03/26 12:38:38;;;;;;;28.63;24.70;;;33.80;22.80;;;;;;5005633;28;20457;-69